Terminal Aerodrome Forecast
Issued by NWS Spokane, WA

Home | Current Version | Previous Version | Text Only | Print | Product List | Glossary On
Versions: 1 2 3 4 5 6 7 8 9 10 11 12 13 14 15 16 17 18 19 20 21 22 23 24 25 26
000
FTUS46 KOTX 271126
TAFGEG
TAF
KGEG 271126Z 2712/2812 05005KT P6SM SCT090 BKN200
     FM272000 05014G21KT P6SM FEW250
     FM280200 04010KT P6SM FEW250=

USA.gov is the U.S. government's official web portal to all federal, state and local government web resources and services.